Flight Track Log - Related Links

Times and Time Zones

All times are in EST time to prevent confusion due to time zone crossing. See the N4608W flight status page for this flight to view local times or setup timezone preferences in your user account.

Time Position Orientation Groundspeed Altitude Reporting Facility
EST Latitude Longitude Course Direction KTS MPH feet Rate Location/Type
Fri 03:57:10 PM 39.1000 -84.4000 37° Northeast 105 121 1,700  Level Cincinnati TRACON
Fri 03:58:10 PM 39.1167 -84.3667 57° Northeast 117 135 2,400 400 Climbing Cincinnati TRACON
Fri 03:59:10 PM 39.1500 -84.3333 38° Northeast 153 176 2,500  Climbing Cincinnati TRACON
Fri 04:00:10 PM 39.1833 -84.3167 21° North 158 182 2,400 -50 Descending Cincinnati TRACON
Fri 04:01:10 PM 39.2333 -84.2833 27° Northeast 157 181 2,400 393 Level Cincinnati TRACON
Fri 04:01:57 PM 39.2475 -84.2625 49° Northeast 112 129 3,100 612 Climbing Indianapolis Center
Fri 04:02:00 PM 39.2865 -84.2473 37° Northeast  Level Estimated
Fri 04:02:48 PM 39.2731 -84.2392 35° Northeast 124 143 3,400  Level Indianapolis Center
Fri 04:02:59 PM 39.2783 -84.2356 28° Northeast 132 152 3,400 411 Level Indianapolis Center
Fri 04:04:01 PM 39.3144 -84.2047 33° Northeast 143 165 3,900 621 Climbing Indianapolis Center
Fri 04:04:26 PM 39.3267 -84.1892 45° Northeast 148 170 4,300 774 Climbing Indianapolis Center
Fri 04:05:03 PM 39.3439 -84.1756 31° Northeast 142 163 4,700 787 Climbing Indianapolis Center
Fri 04:05:27 PM 39.3572 -84.1592 44° Northeast 120 138 5,100 677 Climbing Indianapolis Center
Fri 04:06:05 PM 39.3697 -84.1506 28° Northeast 129 148 5,400 545 Climbing Indianapolis Center
Fri 04:06:22 PM 39.3803 -84.1417 33° Northeast 115 132 5,600 194 Climbing Indianapolis Center
Fri 04:07:07 PM 39.4092 -84.1169 33° Northeast 141 162 5,600  Level Indianapolis Center
Fri 04:07:29 PM 39.4183 -84.0994 56° Northeast 173 199 5,600  Level Indianapolis Center
Fri 04:08:10 PM 39.4419 -84.0747 39° Northeast 159 183 5,600  Level Indianapolis Center
Fri 04:08:30 PM 39.4556 -84.0653 28° Northeast 168 193 5,600  Level Indianapolis Center
Fri 04:09:12 PM 39.4803 -84.0447 33° Northeast 162 186 5,600  Level Indianapolis Center
Fri 04:09:31 PM 39.4928 -84.0311 40° Northeast 167 192 5,600  Level Indianapolis Center
Fri 04:10:26 PM 39.5275 -84.0019 33° Northeast 165 190 5,600  Level Indianapolis Center
Fri 04:11:16 PM 39.5550 -83.9744 38° Northeast 165 190 5,600  Level Indianapolis Center
Fri 04:11:27 PM 39.5656 -83.9597 47° Northeast 167 192 5,600  Level Indianapolis Center
Fri 04:12:18 PM 39.5922 -83.9392 31° Northeast 166 191 5,600  Level Indianapolis Center
Fri 04:12:27 PM 39.6050 -83.9256 39° Northeast 166 191 5,600  Level Indianapolis Center
Fri 04:13:16 PM 39.6331 -83.8978 37° Northeast 162 186 5,600  Level Indianapolis Center
Fri 04:13:20 PM 39.6367 -83.8972 North 165 190 5,600  Level Indianapolis Center
Fri 04:14:22 PM 39.6739 -83.8642 34° Northeast 163 188 5,600  Level Indianapolis Center
Fri 04:14:29 PM 39.6792 -83.8569 46° Northeast 165 190 5,600  Level Indianapolis Center
Fri 04:15:24 PM 39.7100 -83.8286 35° Northeast 163 188 5,600  Level Indianapolis Center
Fri 04:15:30 PM 39.7164 -83.8225 36° Northeast 162 186 5,600  Level Indianapolis Center
Fri 04:16:26 PM 39.7472 -83.7942 35° Northeast 163 188 5,600  Level Indianapolis Center
Fri 04:16:43 PM 39.7611 -83.7783 41° Northeast 167 192 5,600  Level Indianapolis Center
Fri 04:17:28 PM 39.7847 -83.7592 32° Northeast 164 189 5,600  Level Indianapolis Center
Fri 04:18:30 PM 39.8217 -83.7258 35° Northeast 163 188 5,600  Level Indianapolis Center
Fri 04:18:39 PM 39.8325 -83.7172 31° Northeast 162 186 5,600  Level Indianapolis Center
Fri 04:19:46 PM 39.8764 -83.6783 34° Northeast 163 188 5,600  Level Indianapolis Center
Fri 04:20:34 PM 39.9033 -83.6517 37° Northeast 162 186 5,600  Level Indianapolis Center
Fri 04:21:30 PM 39.9369 -83.6203 36° Northeast 162 186 5,600 -97 Level Indianapolis Center
Fri 04:21:36 PM 39.9400 -83.6164 44° Northeast 162 186 5,500 -87 Descending Indianapolis Center
Fri 04:22:39 PM 39.9761 -83.5817 36° Northeast 161 185 5,500  Level Indianapolis Center
Fri 04:22:43 PM 39.9811 -83.5786 25° Northeast 162 186 5,500 -387 Level Indianapolis Center
Fri 04:23:41 PM 40.0131 -83.5456 38° Northeast 163 188 5,100 -393 Descending Indianapolis Center
Fri 04:23:44 PM 40.0183 -83.5411 33° Northeast 167 192 5,100 -581 Level Indianapolis Center
Fri 04:24:43 PM 40.0511 -83.5097 36° Northeast 166 191 4,500 -627 Descending Indianapolis Center
Fri 04:24:51 PM 40.0603 -83.5017 34° Northeast 165 190 4,400 -536 Descending Indianapolis Center
Fri 04:25:39 PM 40.0922 -83.4769 31° Northeast 158 182 4,000 -333 Descending Indianapolis Center
Fri 04:25:45 PM 40.0886 -83.4786 199° South 163 188 4,100 -265 Climbing Indianapolis Center
Fri 04:26:47 PM 40.1347 -83.4442 30° Northeast 162 186 3,700 -387 Descending Indianapolis Center
Fri 04:28:00 PM 40.1697 -83.4004 44° Northeast  Level FlightAware Approximate
Fri 04:35:00 PM 40.2167 -83.3500 37° Northeast  Level FlightAware Approximate
Fri 04:36:00 PM 40.2247 -83.3516 37° Northeast  Level Estimated

Login

Don't have an account? Register now (free) for customized features, flight alerts, and more!